sensor_id;sensor_type;location;lat;lon;timestamp;pressure;altitude;pressure_sealevel;temperature;humidity
7376;BME280;3728;42.266;24.944;2023-04-28T00:00:10;99743.53;;;11.58;54.00
7376;BME280;3728;42.266;24.944;2023-04-28T00:02:38;99734.13;;;11.35;54.24
7376;BME280;3728;42.266;24.944;2023-04-28T00:05:06;99733.78;;;11.28;55.43
7376;BME280;3728;42.266;24.944;2023-04-28T00:07:34;99733.19;;;11.31;54.96
7376;BME280;3728;42.266;24.944;2023-04-28T00:10:01;99730.28;;;11.33;55.13
7376;BME280;3728;42.266;24.944;2023-04-28T00:12:29;99728.78;;;11.18;55.14
7376;BME280;3728;42.266;24.944;2023-04-28T00:14:57;99738.06;;;11.24;54.86
7376;BME280;3728;42.266;24.944;2023-04-28T00:17:24;99731.53;;;11.13;55.34
7376;BME280;3728;42.266;24.944;2023-04-28T00:19:52;99731.75;;;11.03;56.34
7376;BME280;3728;42.266;24.944;2023-04-28T00:22:19;99734.19;;;10.99;56.42
7376;BME280;3728;42.266;24.944;2023-04-28T00:24:47;99725.19;;;11.14;55.52
7376;BME280;3728;42.266;24.944;2023-04-28T00:27:14;99728.53;;;11.28;55.83
7376;BME280;3728;42.266;24.944;2023-04-28T00:29:42;99725.31;;;11.53;54.69
7376;BME280;3728;42.266;24.944;2023-04-28T00:32:09;99731.38;;;10.96;56.07
7376;BME280;3728;42.266;24.944;2023-04-28T00:34:39;99732.44;;;10.73;57.38
7376;BME280;3728;42.266;24.944;2023-04-28T00:37:06;99736.84;;;10.86;56.34
7376;BME280;3728;42.266;24.944;2023-04-28T00:39:34;99735.88;;;10.82;56.02
7376;BME280;3728;42.266;24.944;2023-04-28T00:42:02;99734.53;;;10.84;55.63
7376;BME280;3728;42.266;24.944;2023-04-28T00:44:30;99727.81;;;10.56;55.73
7376;BME280;3728;42.266;24.944;2023-04-28T00:46:58;99732.13;;;10.39;56.54
7376;BME280;3728;42.266;24.944;2023-04-28T00:49:25;99738.03;;;10.17;56.81
7376;BME280;3728;42.266;24.944;2023-04-28T00:51:53;99744.22;;;10.21;57.04
7376;BME280;3728;42.266;24.944;2023-04-28T00:54:21;99737.06;;;10.26;56.24
7376;BME280;3728;42.266;24.944;2023-04-28T00:56:48;99729.78;;;10.23;55.18
7376;BME280;3728;42.266;24.944;2023-04-28T00:59:16;99739.34;;;10.42;55.46
7376;BME280;3728;42.266;24.944;2023-04-28T01:01:44;99742.59;;;10.39;55.03
7376;BME280;3728;42.266;24.944;2023-04-28T01:04:12;99740.44;;;10.41;53.89
7376;BME280;3728;42.266;24.944;2023-04-28T01:06:42;99732.41;;;10.23;54.93
7376;BME280;3728;42.266;24.944;2023-04-28T01:09:10;99737.81;;;10.41;54.15
7376;BME280;3728;42.266;24.944;2023-04-28T01:11:38;99742.28;;;10.40;53.47
7376;BME280;3728;42.266;24.944;2023-04-28T01:14:07;99744.53;;;10.19;53.63
7376;BME280;3728;42.266;24.944;2023-04-28T01:16:37;99740.63;;;10.30;53.67
7376;BME280;3728;42.266;24.944;2023-04-28T01:19:14;99742.78;;;10.15;53.87
7376;BME280;3728;42.266;24.944;2023-04-28T01:21:48;99737.97;;;9.90;54.33
7376;BME280;3728;42.266;24.944;2023-04-28T01:24:20;99735.56;;;9.80;55.31
7376;BME280;3728;42.266;24.944;2023-04-28T01:26:48;99740.09;;;9.88;55.54
7376;BME280;3728;42.266;24.944;2023-04-28T01:29:16;99747.00;;;9.84;56.06
7376;BME280;3728;42.266;24.944;2023-04-28T01:31:43;99750.63;;;9.69;55.93
7376;BME280;3728;42.266;24.944;2023-04-28T01:34:11;99745.88;;;9.57;55.63
7376;BME280;3728;42.266;24.944;2023-04-28T01:36:40;99749.66;;;9.65;55.67
7376;BME280;3728;42.266;24.944;2023-04-28T01:39:09;99751.44;;;9.83;54.85
7376;BME280;3728;42.266;24.944;2023-04-28T01:41:39;99740.81;;;9.93;55.06
7376;BME280;3728;42.266;24.944;2023-04-28T01:44:06;99746.41;;;9.87;55.47
7376;BME280;3728;42.266;24.944;2023-04-28T01:46:34;99747.78;;;9.84;55.68
7376;BME280;3728;42.266;24.944;2023-04-28T01:49:02;99747.84;;;9.79;55.88
7376;BME280;3728;42.266;24.944;2023-04-28T01:51:30;99741.50;;;9.53;57.67
7376;BME280;3728;42.266;24.944;2023-04-28T01:53:59;99745.34;;;9.42;57.26
7376;BME280;3728;42.266;24.944;2023-04-28T01:56:28;99741.97;;;9.55;57.90
7376;BME280;3728;42.266;24.944;2023-04-28T01:58:56;99744.75;;;9.45;57.21
7376;BME280;3728;42.266;24.944;2023-04-28T02:01:24;99753.09;;;9.47;56.33
7376;BME280;3728;42.266;24.944;2023-04-28T02:03:52;99749.41;;;9.48;55.97
7376;BME280;3728;42.266;24.944;2023-04-28T02:06:22;99748.38;;;9.30;57.26
7376;BME280;3728;42.266;24.944;2023-04-28T02:08:49;99757.72;;;9.36;56.55
7376;BME280;3728;42.266;24.944;2023-04-28T02:11:17;99753.38;;;9.45;57.61
7376;BME280;3728;42.266;24.944;2023-04-28T02:13:45;99753.13;;;9.28;57.23
7376;BME280;3728;42.266;24.944;2023-04-28T02:16:13;99760.69;;;9.30;57.35
7376;BME280;3728;42.266;24.944;2023-04-28T02:18:41;99765.59;;;9.18;57.96
7376;BME280;3728;42.266;24.944;2023-04-28T02:21:12;99760.34;;;9.18;57.74
7376;BME280;3728;42.266;24.944;2023-04-28T02:23:39;99756.09;;;9.22;58.33
7376;BME280;3728;42.266;24.944;2023-04-28T02:26:07;99762.41;;;9.21;57.72
7376;BME280;3728;42.266;24.944;2023-04-28T02:28:34;99763.38;;;9.25;57.74
7376;BME280;3728;42.266;24.944;2023-04-28T02:31:05;99773.59;;;9.21;57.53
7376;BME280;3728;42.266;24.944;2023-04-28T02:33:37;99768.16;;;9.36;56.42
7376;BME280;3728;42.266;24.944;2023-04-28T02:36:05;99775.34;;;9.63;55.20
7376;BME280;3728;42.266;24.944;2023-04-28T02:38:33;99785.31;;;9.42;55.79
7376;BME280;3728;42.266;24.944;2023-04-28T02:41:06;99782.59;;;9.15;57.99
7376;BME280;3728;42.266;24.944;2023-04-28T02:43:35;99788.19;;;9.09;59.98
7376;BME280;3728;42.266;24.944;2023-04-28T02:46:04;99792.91;;;9.25;57.44
7376;BME280;3728;42.266;24.944;2023-04-28T02:48:32;99790.38;;;9.20;57.28
7376;BME280;3728;42.266;24.944;2023-04-28T02:51:01;99795.72;;;8.91;58.95
7376;BME280;3728;42.266;24.944;2023-04-28T02:53:31;99803.13;;;8.84;58.95
7376;BME280;3728;42.266;24.944;2023-04-28T02:55:58;99816.25;;;8.79;60.17
7376;BME280;3728;42.266;24.944;2023-04-28T02:58:28;99805.75;;;8.84;60.64
7376;BME280;3728;42.266;24.944;2023-04-28T03:00:55;99809.41;;;8.83;59.98
7376;BME280;3728;42.266;24.944;2023-04-28T03:03:23;99810.56;;;8.96;59.66
7376;BME280;3728;42.266;24.944;2023-04-28T03:05:51;99809.59;;;8.68;61.54
7376;BME280;3728;42.266;24.944;2023-04-28T03:08:18;99816.75;;;8.58;62.42
7376;BME280;3728;42.266;24.944;2023-04-28T03:10:46;99817.44;;;8.68;61.58
7376;BME280;3728;42.266;24.944;2023-04-28T03:13:14;99821.81;;;8.49;63.89
7376;BME280;3728;42.266;24.944;2023-04-28T03:15:42;99817.59;;;8.30;64.22
7376;BME280;3728;42.266;24.944;2023-04-28T03:18:10;99813.81;;;8.17;65.42
7376;BME280;3728;42.266;24.944;2023-04-28T03:20:38;99826.06;;;8.16;65.56
7376;BME280;3728;42.266;24.944;2023-04-28T03:23:05;99826.50;;;8.23;65.83
7376;BME280;3728;42.266;24.944;2023-04-28T03:25:33;99829.81;;;8.34;65.99
7376;BME280;3728;42.266;24.944;2023-04-28T03:28:01;99830.94;;;8.28;66.33
7376;BME280;3728;42.266;24.944;2023-04-28T03:30:29;99835.66;;;8.21;67.70
7376;BME280;3728;42.266;24.944;2023-04-28T03:32:57;99834.03;;;8.30;67.54
7376;BME280;3728;42.266;24.944;2023-04-28T03:35:24;99837.13;;;8.32;67.19
7376;BME280;3728;42.266;24.944;2023-04-28T03:37:52;99845.00;;;8.27;67.24
7376;BME280;3728;42.266;24.944;2023-04-28T03:40:20;99852.41;;;8.15;68.54
7376;BME280;3728;42.266;24.944;2023-04-28T03:43:10;99845.28;;;7.97;69.41
7376;BME280;3728;42.266;24.944;2023-04-28T03:45:45;99862.56;;;7.88;70.57
7376;BME280;3728;42.266;24.944;2023-04-28T03:48:13;99864.66;;;7.86;71.37
7376;BME280;3728;42.266;24.944;2023-04-28T03:50:40;99859.63;;;7.94;72.66
7376;BME280;3728;42.266;24.944;2023-04-28T03:53:09;99869.25;;;7.99;70.79
7376;BME280;3728;42.266;24.944;2023-04-28T03:55:37;99868.94;;;8.05;71.06
7376;BME280;3728;42.266;24.944;2023-04-28T03:58:05;99882.25;;;8.04;71.00
7376;BME280;3728;42.266;24.944;2023-04-28T04:00:33;99878.81;;;8.08;71.37
7376;BME280;3728;42.266;24.944;2023-04-28T04:03:00;99885.38;;;8.01;71.41
7376;BME280;3728;42.266;24.944;2023-04-28T04:05:28;99896.88;;;8.00;72.14
7376;BME280;3728;42.266;24.944;2023-04-28T04:07:56;99886.91;;;8.07;71.70
7376;BME280;3728;42.266;24.944;2023-04-28T04:10:24;99893.75;;;8.03;72.17
7376;BME280;3728;42.266;24.944;2023-04-28T04:12:51;99903.03;;;7.80;72.73
7376;BME280;3728;42.266;24.944;2023-04-28T04:15:19;99906.19;;;7.77;73.91
7376;BME280;3728;42.266;24.944;2023-04-28T04:17:47;99904.91;;;7.75;74.11
7376;BME280;3728;42.266;24.944;2023-04-28T04:20:15;99907.13;;;7.91;74.34
7376;BME280;3728;42.266;24.944;2023-04-28T04:22:44;99897.97;;;7.94;73.78
7376;BME280;3728;42.266;24.944;2023-04-28T04:25:12;99907.09;;;8.25;72.43
7376;BME280;3728;42.266;24.944;2023-04-28T04:27:42;99908.91;;;8.30;71.55
7376;BME280;3728;42.266;24.944;2023-04-28T04:30:10;99913.91;;;8.55;70.71
7376;BME280;3728;42.266;24.944;2023-04-28T04:32:38;99914.63;;;8.32;71.60
7376;BME280;3728;42.266;24.944;2023-04-28T04:35:05;99915.16;;;8.34;72.08
7376;BME280;3728;42.266;24.944;2023-04-28T04:37:33;99923.97;;;8.66;71.02
7376;BME280;3728;42.266;24.944;2023-04-28T04:40:01;99925.34;;;8.59;70.88
7376;BME280;3728;42.266;24.944;2023-04-28T04:42:35;99933.41;;;8.86;70.50
7376;BME280;3728;42.266;24.944;2023-04-28T04:45:15;99927.22;;;9.24;67.82
7376;BME280;3728;42.266;24.944;2023-04-28T04:47:43;99936.06;;;9.47;67.07
7376;BME280;3728;42.266;24.944;2023-04-28T04:50:11;99938.97;;;9.45;66.59
7376;BME280;3728;42.266;24.944;2023-04-28T04:52:39;99945.06;;;9.41;67.75
7376;BME280;3728;42.266;24.944;2023-04-28T04:55:07;99947.25;;;9.34;68.55
7376;BME280;3728;42.266;24.944;2023-04-28T04:57:39;99959.25;;;9.35;68.50
7376;BME280;3728;42.266;24.944;2023-04-28T05:00:26;99964.28;;;9.50;67.76
7376;BME280;3728;42.266;24.944;2023-04-28T05:02:54;99966.22;;;9.63;67.27
7376;BME280;3728;42.266;24.944;2023-04-28T05:05:25;99963.88;;;9.80;64.72
7376;BME280;3728;42.266;24.944;2023-04-28T05:08:05;99968.41;;;9.75;64.23
7376;BME280;3728;42.266;24.944;2023-04-28T05:10:33;99975.25;;;9.89;63.93
7376;BME280;3728;42.266;24.944;2023-04-28T05:13:02;99972.97;;;10.01;64.33
7376;BME280;3728;42.266;24.944;2023-04-28T05:15:33;99977.34;;;10.24;62.63
7376;BME280;3728;42.266;24.944;2023-04-28T05:18:19;99975.69;;;10.47;60.88
7376;BME280;3728;42.266;24.944;2023-04-28T05:20:48;99981.72;;;10.48;60.26
7376;BME280;3728;42.266;24.944;2023-04-28T05:23:17;99983.25;;;10.49;60.65
7376;BME280;3728;42.266;24.944;2023-04-28T05:25:46;99991.91;;;10.63;59.84
7376;BME280;3728;42.266;24.944;2023-04-28T05:28:13;99986.88;;;10.53;62.12
7376;BME280;3728;42.266;24.944;2023-04-28T05:30:42;99997.25;;;10.58;61.29
7376;BME280;3728;42.266;24.944;2023-04-28T05:33:13;99992.31;;;10.70;61.29
7376;BME280;3728;42.266;24.944;2023-04-28T05:35:41;100000.00;;;10.66;63.36
7376;BME280;3728;42.266;24.944;2023-04-28T05:38:09;99998.56;;;10.74;62.66
7376;BME280;3728;42.266;24.944;2023-04-28T05:40:37;100004.88;;;10.86;63.22
7376;BME280;3728;42.266;24.944;2023-04-28T05:43:04;100011.13;;;11.04;64.28
7376;BME280;3728;42.266;24.944;2023-04-28T05:45:32;100011.91;;;11.18;65.13
7376;BME280;3728;42.266;24.944;2023-04-28T05:48:01;100012.44;;;11.42;65.93
7376;BME280;3728;42.266;24.944;2023-04-28T05:50:31;100017.72;;;11.70;63.44
7376;BME280;3728;42.266;24.944;2023-04-28T05:53:00;100021.97;;;11.79;63.65
7376;BME280;3728;42.266;24.944;2023-04-28T05:55:28;100026.41;;;11.92;64.18
7376;BME280;3728;42.266;24.944;2023-04-28T05:57:57;100028.44;;;11.95;62.13
7376;BME280;3728;42.266;24.944;2023-04-28T06:00:25;100040.94;;;12.12;60.98
7376;BME280;3728;42.266;24.944;2023-04-28T06:02:57;100045.00;;;12.18;61.30
7376;BME280;3728;42.266;24.944;2023-04-28T06:05:25;100033.91;;;12.21;59.56
7376;BME280;3728;42.266;24.944;2023-04-28T06:07:54;100039.75;;;12.18;59.41
7376;BME280;3728;42.266;24.944;2023-04-28T06:10:22;100034.84;;;12.25;58.83
7376;BME280;3728;42.266;24.944;2023-04-28T06:12:51;100040.06;;;12.39;59.70
7376;BME280;3728;42.266;24.944;2023-04-28T06:15:18;100033.53;;;12.58;58.43
7376;BME280;3728;42.266;24.944;2023-04-28T06:17:47;100031.69;;;12.81;58.28
7376;BME280;3728;42.266;24.944;2023-04-28T06:20:15;100031.03;;;12.75;55.55
7376;BME280;3728;42.266;24.944;2023-04-28T06:22:43;100039.13;;;12.87;55.97
7376;BME280;3728;42.266;24.944;2023-04-28T06:25:11;100039.69;;;13.37;54.44
7376;BME280;3728;42.266;24.944;2023-04-28T06:27:45;100047.78;;;13.49;53.37
7376;BME280;3728;42.266;24.944;2023-04-28T06:30:23;100042.28;;;13.29;55.09
7376;BME280;3728;42.266;24.944;2023-04-28T06:32:50;100043.47;;;13.62;52.75
7376;BME280;3728;42.266;24.944;2023-04-28T06:35:19;100049.97;;;13.73;53.02
7376;BME280;3728;42.266;24.944;2023-04-28T06:37:47;100045.63;;;13.60;53.11
7376;BME280;3728;42.266;24.944;2023-04-28T06:40:15;100057.16;;;14.07;50.69
7376;BME280;3728;42.266;24.944;2023-04-28T06:42:49;100051.41;;;13.96;50.41
7376;BME280;3728;42.266;24.944;2023-04-28T06:45:25;100053.75;;;13.98;51.40
7376;BME280;3728;42.266;24.944;2023-04-28T06:47:55;100055.88;;;13.70;51.75
7376;BME280;3728;42.266;24.944;2023-04-28T06:50:23;100054.66;;;14.02;51.07
7376;BME280;3728;42.266;24.944;2023-04-28T06:52:50;100056.38;;;14.06;50.67
7376;BME280;3728;42.266;24.944;2023-04-28T06:55:19;100051.72;;;13.95;51.80
7376;BME280;3728;42.266;24.944;2023-04-28T06:57:48;100057.00;;;14.03;51.25
7376;BME280;3728;42.266;24.944;2023-04-28T07:00:16;100053.88;;;13.93;51.74
7376;BME280;3728;42.266;24.944;2023-04-28T07:02:44;100057.63;;;14.17;51.92
7376;BME280;3728;42.266;24.944;2023-04-28T07:05:12;100063.81;;;14.21;52.04
7376;BME280;3728;42.266;24.944;2023-04-28T07:07:42;100068.66;;;14.36;50.59
7376;BME280;3728;42.266;24.944;2023-04-28T07:10:09;100063.81;;;14.56;50.99
7376;BME280;3728;42.266;24.944;2023-04-28T07:12:37;100066.56;;;14.85;49.03
7376;BME280;3728;42.266;24.944;2023-04-28T07:15:05;100063.72;;;14.98;48.61
7376;BME280;3728;42.266;24.944;2023-04-28T07:17:35;100065.53;;;15.15;47.11
7376;BME280;3728;42.266;24.944;2023-04-28T07:20:04;100060.94;;;15.03;46.98
7376;BME280;3728;42.266;24.944;2023-04-28T07:22:32;100060.47;;;15.39;47.41
7376;BME280;3728;42.266;24.944;2023-04-28T07:25:00;100061.56;;;15.47;46.43
7376;BME280;3728;42.266;24.944;2023-04-28T07:27:27;100058.69;;;15.23;47.38
7376;BME280;3728;42.266;24.944;2023-04-28T07:29:55;100058.44;;;15.07;47.07
7376;BME280;3728;42.266;24.944;2023-04-28T07:32:23;100054.91;;;14.94;47.67
7376;BME280;3728;42.266;24.944;2023-04-28T07:34:50;100058.97;;;15.30;46.22
7376;BME280;3728;42.266;24.944;2023-04-28T07:37:18;100061.38;;;15.43;45.89
7376;BME280;3728;42.266;24.944;2023-04-28T07:39:45;100052.00;;;15.63;46.01
7376;BME280;3728;42.266;24.944;2023-04-28T07:42:13;100052.91;;;15.67;45.60
7376;BME280;3728;42.266;24.944;2023-04-28T07:44:40;100063.88;;;15.48;46.40
7376;BME280;3728;42.266;24.944;2023-04-28T07:47:08;100053.00;;;15.79;44.71
7376;BME280;3728;42.266;24.944;2023-04-28T07:49:36;100056.22;;;15.85;45.36
7376;BME280;3728;42.266;24.944;2023-04-28T07:52:03;100057.06;;;15.47;44.34
7376;BME280;3728;42.266;24.944;2023-04-28T07:54:31;100055.16;;;15.56;46.48
7376;BME280;3728;42.266;24.944;2023-04-28T07:57:02;100057.22;;;15.42;44.66
7376;BME280;3728;42.266;24.944;2023-04-28T07:59:33;100057.97;;;15.51;46.32
7376;BME280;3728;42.266;24.944;2023-04-28T08:02:00;100051.50;;;15.90;47.19
7376;BME280;3728;42.266;24.944;2023-04-28T08:04:28;100056.16;;;15.93;45.24
7376;BME280;3728;42.266;24.944;2023-04-28T08:06:58;100042.50;;;16.12;45.28
7376;BME280;3728;42.266;24.944;2023-04-28T08:09:26;100051.06;;;16.29;43.93
7376;BME280;3728;42.266;24.944;2023-04-28T08:11:53;100044.66;;;16.30;44.96
7376;BME280;3728;42.266;24.944;2023-04-28T08:14:21;100052.53;;;16.18;45.10
7376;BME280;3728;42.266;24.944;2023-04-28T08:16:49;100044.84;;;16.46;44.93
7376;BME280;3728;42.266;24.944;2023-04-28T08:19:17;100047.34;;;16.63;46.05
7376;BME280;3728;42.266;24.944;2023-04-28T08:21:45;100047.44;;;17.12;42.65
7376;BME280;3728;42.266;24.944;2023-04-28T08:24:12;100046.59;;;16.75;45.11
7376;BME280;3728;42.266;24.944;2023-04-28T08:26:40;100041.31;;;16.63;44.67
7376;BME280;3728;42.266;24.944;2023-04-28T08:29:08;100033.84;;;16.77;45.44
7376;BME280;3728;42.266;24.944;2023-04-28T08:31:35;100029.00;;;16.91;43.96
7376;BME280;3728;42.266;24.944;2023-04-28T08:34:03;100032.16;;;16.60;42.97
7376;BME280;3728;42.266;24.944;2023-04-28T08:36:31;100025.34;;;16.18;43.27
7376;BME280;3728;42.266;24.944;2023-04-28T08:38:59;100024.50;;;16.26;45.77
7376;BME280;3728;42.266;24.944;2023-04-28T08:41:31;100029.03;;;16.58;43.31
7376;BME280;3728;42.266;24.944;2023-04-28T08:43:59;100027.41;;;16.66;45.25
7376;BME280;3728;42.266;24.944;2023-04-28T08:46:27;100027.50;;;16.57;44.34
7376;BME280;3728;42.266;24.944;2023-04-28T08:48:59;100020.53;;;17.09;43.16
7376;BME280;3728;42.266;24.944;2023-04-28T08:51:33;100022.50;;;17.37;43.04
7376;BME280;3728;42.266;24.944;2023-04-28T08:54:07;100018.44;;;17.15;41.18
7376;BME280;3728;42.266;24.944;2023-04-28T08:56:52;100020.50;;;16.85;41.85
7376;BME280;3728;42.266;24.944;2023-04-28T08:59:21;100017.31;;;16.92;43.34
7376;BME280;3728;42.266;24.944;2023-04-28T09:01:51;100019.53;;;17.02;42.63
7376;BME280;3728;42.266;24.944;2023-04-28T09:04:19;100013.69;;;17.21;42.53
7376;BME280;3728;42.266;24.944;2023-04-28T09:06:48;100012.34;;;17.27;41.28
7376;BME280;3728;42.266;24.944;2023-04-28T09:09:19;100014.78;;;17.32;42.46
7376;BME280;3728;42.266;24.944;2023-04-28T09:11:55;100017.88;;;17.58;41.24
7376;BME280;3728;42.266;24.944;2023-04-28T09:14:29;100013.34;;;17.70;43.79
7376;BME280;3728;42.266;24.944;2023-04-28T09:17:02;100006.59;;;18.13;42.90
7376;BME280;3728;42.266;24.944;2023-04-28T09:19:38;100010.25;;;18.36;41.62
7376;BME280;3728;42.266;24.944;2023-04-28T09:22:08;100006.00;;;18.47;40.70
7376;BME280;3728;42.266;24.944;2023-04-28T09:24:52;100005.94;;;18.59;41.16
7376;BME280;3728;42.266;24.944;2023-04-28T09:27:27;100001.81;;;18.18;42.79
7376;BME280;3728;42.266;24.944;2023-04-28T09:29:55;99996.19;;;17.92;42.95
7376;BME280;3728;42.266;24.944;2023-04-28T09:32:23;99993.63;;;18.51;40.58
7376;BME280;3728;42.266;24.944;2023-04-28T09:34:53;99990.22;;;18.38;41.80
7376;BME280;3728;42.266;24.944;2023-04-28T09:37:26;99997.91;;;18.56;40.96
7376;BME280;3728;42.266;24.944;2023-04-28T09:40:03;99992.47;;;18.36;41.42
7376;BME280;3728;42.266;24.944;2023-04-28T09:45:12;99982.41;;;18.73;41.06
7376;BME280;3728;42.266;24.944;2023-04-28T09:47:42;99979.34;;;18.71;41.31
7376;BME280;3728;42.266;24.944;2023-04-28T09:50:14;99981.38;;;19.09;41.42
7376;BME280;3728;42.266;24.944;2023-04-28T09:52:55;99982.56;;;19.43;40.03
7376;BME280;3728;42.266;24.944;2023-04-28T09:55:27;99963.69;;;19.32;39.27
7376;BME280;3728;42.266;24.944;2023-04-28T09:57:55;99967.16;;;19.17;40.74
7376;BME280;3728;42.266;24.944;2023-04-28T10:00:23;99965.84;;;19.42;39.72
7376;BME280;3728;42.266;24.944;2023-04-28T10:02:51;99963.91;;;19.77;37.74
7376;BME280;3728;42.266;24.944;2023-04-28T10:05:20;99961.72;;;19.45;37.45
7376;BME280;3728;42.266;24.944;2023-04-28T10:07:49;99956.59;;;19.36;37.24
7376;BME280;3728;42.266;24.944;2023-04-28T10:10:19;99950.19;;;19.22;36.98
7376;BME280;3728;42.266;24.944;2023-04-28T10:12:48;99946.28;;;19.35;38.19
7376;BME280;3728;42.266;24.944;2023-04-28T10:15:15;99946.53;;;19.64;37.88
7376;BME280;3728;42.266;24.944;2023-04-28T10:17:43;99946.41;;;19.57;40.51
7376;BME280;3728;42.266;24.944;2023-04-28T10:20:14;99940.63;;;19.90;37.87
7376;BME280;3728;42.266;24.944;2023-04-28T10:23:21;99942.00;;;19.84;37.11
7376;BME280;3728;42.266;24.944;2023-04-28T10:26:13;99938.84;;;19.78;37.31
7376;BME280;3728;42.266;24.944;2023-04-28T10:28:50;99941.75;;;20.12;36.47
7376;BME280;3728;42.266;24.944;2023-04-28T10:31:19;99926.47;;;20.24;37.73
7376;BME280;3728;42.266;24.944;2023-04-28T10:33:48;99927.19;;;20.44;38.09
7376;BME280;3728;42.266;24.944;2023-04-28T10:36:50;99928.97;;;20.85;35.16
7376;BME280;3728;42.266;24.944;2023-04-28T10:39:20;99925.88;;;21.06;35.13
7376;BME280;3728;42.266;24.944;2023-04-28T10:41:48;99920.31;;;20.43;35.46
7376;BME280;3728;42.266;24.944;2023-04-28T10:47:02;99915.00;;;20.01;36.16
7376;BME280;3728;42.266;24.944;2023-04-28T10:55:30;99915.81;;;20.47;36.09
7376;BME280;3728;42.266;24.944;2023-04-28T11:00:53;99913.25;;;21.03;34.89
7376;BME280;3728;42.266;24.944;2023-04-28T11:09:03;99899.25;;;21.36;32.11
7376;BME280;3728;42.266;24.944;2023-04-28T11:14:37;99902.94;;;21.01;32.90
7376;BME280;3728;42.266;24.944;2023-04-28T11:17:11;99899.66;;;20.59;34.73
7376;BME280;3728;42.266;24.944;2023-04-28T11:19:45;99896.50;;;20.76;33.58
7376;BME280;3728;42.266;24.944;2023-04-28T11:22:21;99889.00;;;20.82;35.84
7376;BME280;3728;42.266;24.944;2023-04-28T11:25:00;99887.59;;;20.91;34.22
7376;BME280;3728;42.266;24.944;2023-04-28T11:27:30;99891.09;;;21.22;33.49
7376;BME280;3728;42.266;24.944;2023-04-28T11:29:59;99889.50;;;21.17;32.75
7376;BME280;3728;42.266;24.944;2023-04-28T11:32:28;99886.47;;;21.19;33.94
7376;BME280;3728;42.266;24.944;2023-04-28T11:34:59;99891.03;;;21.48;33.11
7376;BME280;3728;42.266;24.944;2023-04-28T11:37:29;99880.47;;;21.92;34.18
7376;BME280;3728;42.266;24.944;2023-04-28T11:39:57;99881.53;;;22.24;33.59
7376;BME280;3728;42.266;24.944;2023-04-28T11:42:25;99881.66;;;22.38;31.44
7376;BME280;3728;42.266;24.944;2023-04-28T11:44:54;99883.53;;;22.34;31.96
7376;BME280;3728;42.266;24.944;2023-04-28T11:47:29;99878.09;;;22.67;32.62
7376;BME280;3728;42.266;24.944;2023-04-28T11:50:37;99883.69;;;22.52;31.51
7376;BME280;3728;42.266;24.944;2023-04-28T11:53:04;99876.34;;;22.41;32.02
7376;BME280;3728;42.266;24.944;2023-04-28T11:55:32;99877.03;;;22.79;32.08
7376;BME280;3728;42.266;24.944;2023-04-28T11:58:21;99868.97;;;22.75;31.25
7376;BME280;3728;42.266;24.944;2023-04-28T12:01:10;99869.56;;;22.51;31.61
7376;BME280;3728;42.266;24.944;2023-04-28T12:03:45;99863.59;;;22.68;30.83
7376;BME280;3728;42.266;24.944;2023-04-28T12:06:17;99862.72;;;22.54;30.70
7376;BME280;3728;42.266;24.944;2023-04-28T12:08:45;99859.84;;;22.73;31.96
7376;BME280;3728;42.266;24.944;2023-04-28T12:11:17;99856.22;;;23.16;30.88
7376;BME280;3728;42.266;24.944;2023-04-28T12:14:04;99850.94;;;23.27;30.67
7376;BME280;3728;42.266;24.944;2023-04-28T12:16:40;99849.00;;;23.17;30.36
7376;BME280;3728;42.266;24.944;2023-04-28T12:19:10;99844.75;;;23.08;29.83
7376;BME280;3728;42.266;24.944;2023-04-28T12:21:41;99842.34;;;22.89;31.47
7376;BME280;3728;42.266;24.944;2023-04-28T12:24:16;99835.84;;;22.83;31.00
7376;BME280;3728;42.266;24.944;2023-04-28T12:26:47;99831.34;;;23.01;30.30
7376;BME280;3728;42.266;24.944;2023-04-28T12:29:40;99832.41;;;22.79;31.77
7376;BME280;3728;42.266;24.944;2023-04-28T12:32:10;99820.66;;;22.40;31.14
7376;BME280;3728;42.266;24.944;2023-04-28T12:34:40;99816.91;;;22.44;32.51
7376;BME280;3728;42.266;24.944;2023-04-28T12:37:09;99817.53;;;22.27;32.80
7376;BME280;3728;42.266;24.944;2023-04-28T12:39:38;99815.53;;;22.65;32.24
7376;BME280;3728;42.266;24.944;2023-04-28T12:42:07;99806.44;;;22.76;31.96
7376;BME280;3728;42.266;24.944;2023-04-28T12:44:36;99809.41;;;22.61;32.46
7376;BME280;3728;42.266;24.944;2023-04-28T12:47:08;99803.38;;;22.78;31.02
7376;BME280;3728;42.266;24.944;2023-04-28T12:49:39;99800.16;;;22.51;31.89
7376;BME280;3728;42.266;24.944;2023-04-28T12:52:08;99796.59;;;22.33;31.27
7376;BME280;3728;42.266;24.944;2023-04-28T12:54:35;99785.44;;;22.17;32.57
7376;BME280;3728;42.266;24.944;2023-04-28T12:57:04;99788.19;;;22.27;32.43
7376;BME280;3728;42.266;24.944;2023-04-28T12:59:32;99785.31;;;22.54;31.47
7376;BME280;3728;42.266;24.944;2023-04-28T13:01:59;99777.91;;;23.01;29.90
7376;BME280;3728;42.266;24.944;2023-04-28T13:04:27;99783.66;;;23.10;29.56
7376;BME280;3728;42.266;24.944;2023-04-28T13:06:56;99783.53;;;22.75;29.76
7376;BME280;3728;42.266;24.944;2023-04-28T13:09:25;99774.06;;;22.30;30.73
7376;BME280;3728;42.266;24.944;2023-04-28T13:11:53;99773.47;;;21.97;31.33
7376;BME280;3728;42.266;24.944;2023-04-28T13:14:21;99764.38;;;21.61;32.29
7376;BME280;3728;42.266;24.944;2023-04-28T13:16:49;99761.09;;;21.38;33.66
7376;BME280;3728;42.266;24.944;2023-04-28T13:19:18;99751.88;;;21.32;33.38
7376;BME280;3728;42.266;24.944;2023-04-28T13:21:45;99745.38;;;21.66;32.42
7376;BME280;3728;42.266;24.944;2023-04-28T13:24:13;99745.38;;;21.66;32.19
7376;BME280;3728;42.266;24.944;2023-04-28T13:26:41;99740.31;;;21.98;33.28
7376;BME280;3728;42.266;24.944;2023-04-28T13:29:13;99740.66;;;22.54;32.24
7376;BME280;3728;42.266;24.944;2023-04-28T13:31:40;99739.38;;;23.06;31.03
7376;BME280;3728;42.266;24.944;2023-04-28T13:34:08;99736.47;;;23.43;33.36
7376;BME280;3728;42.266;24.944;2023-04-28T13:36:42;99736.44;;;23.39;33.72
7376;BME280;3728;42.266;24.944;2023-04-28T13:39:10;99737.25;;;23.78;32.12
7376;BME280;3728;42.266;24.944;2023-04-28T13:41:40;99740.28;;;24.02;31.03
7376;BME280;3728;42.266;24.944;2023-04-28T13:44:08;99746.03;;;24.14;29.97
7376;BME280;3728;42.266;24.944;2023-04-28T13:46:36;99737.97;;;24.32;29.07